Time;durP1;ratioP1;P1;durP2;ratioP2;P2;SDS_P1;SDS_P2;PMS_P1;PMS_P2;Temp;Humidity;BMP_temperature;BMP_pressure;BME280_temperature;BME280_humidity;BME280_pressure;Samples;Min_cycle;Max_cycle;Signal;HPM_P1;HPM_P2
2023/11/20 00:01:13;;;;;;;;;;;;;;;;;;4880904;29;19998;-65
2023/11/20 00:03:38;;;;;;;;;;;;;;;;;;4913017;29;20445;-65
2023/11/20 00:06:07;;;;;;;;;;;;;;;;;;4907039;29;20016;-64
2023/11/20 00:08:32;;;;;;;;;;;;;;;;;;4895051;29;20061;-65
2023/11/20 00:10:58;;;;;;;;;;;;;;;;;;4881152;29;19929;-65
2023/11/20 00:13:24;;;;;;;;;;;;;;;;;;4893388;29;19941;-64
2023/11/20 00:15:49;;;;;;;;;;;;;;;;;;4905423;29;19914;-65
2023/11/20 00:18:15;;;;;;;;;;;;;;;;;;4892895;29;20013;-65
2023/11/20 00:20:40;;;;;;;;;;;;;;;;;;4907629;29;19930;-65
2023/11/20 00:23:05;;;;;;;;;;;;;;;;;;4891609;29;19927;-64
2023/11/20 00:25:31;;;;;;;;;;;;;;;;;;4907006;29;19926;-65
2023/11/20 00:27:56;;;;;;;;;;;;;;;;;;4894572;29;20008;-64
2023/11/20 00:30:22;;;;;;;;;;;;;;;;;;4894428;29;19922;-63
2023/11/20 00:32:47;;;;;;;;;;;;;;;;;;4895494;29;19923;-64
2023/11/20 00:35:17;;;;;;;;;;;;;;;;;;4889115;29;20392;-63
2023/11/20 00:37:42;;;;;;;;;;;;;;;;;;4876706;29;20524;-63
2023/11/20 00:40:10;;;;;;;;;;;;;;;;;;4889295;29;21383;-63
2023/11/20 00:42:35;;;;;;;;;;;;;;;;;;4909288;29;20343;-63
2023/11/20 00:45:01;;;;;;;;;;;;;;;;;;4911072;29;20021;-63
2023/11/20 00:47:26;;;;;;;;;;;;;;;;;;4889776;29;19953;-64
2023/11/20 00:49:51;;;;;;;;;;;;;;;;;;4892203;29;19930;-64
2023/11/20 00:52:17;;;;;;;;;;;;;;;;;;4892876;29;20421;-64
2023/11/20 00:54:45;;;;;;;;;;;;;;;;;;4910148;29;19922;-64
2023/11/20 00:57:10;;;;;;;;;;;;;;;;;;4902137;29;19923;-64
2023/11/20 00:59:35;;;;;;;;;;;;;;;;;;4893898;29;19985;-66
2023/11/20 01:02:01;;;;;;;;;;;;;;;;;;4887408;29;19982;-64
2023/11/20 01:04:29;;;;;;;;;;;;;;;;;;4911287;29;19960;-66
2023/11/20 01:06:54;;;;;;;;;;;;;;;;;;4903906;29;20062;-66
2023/11/20 01:09:20;;;;;;;;;;;;;;;;;;4892118;29;20938;-66
2023/11/20 01:11:46;;;;;;;;;;;;;;;;;;4905065;29;20313;-66
2023/11/20 01:14:12;;;;;;;;;;;;;;;;;;4892708;29;19923;-66
2023/11/20 01:16:40;;;;;;;;;;;;;;;;;;4893921;29;19967;-65
2023/11/20 01:19:05;;;;;;;;;;;;;;;;;;4894958;29;19926;-66
2023/11/20 01:21:31;;;;;;;;;;;;;;;;;;4889551;29;19966;-67
2023/11/20 01:23:56;;;;;;;;;;;;;;;;;;4893773;29;19926;-66
2023/11/20 01:26:22;;;;;;;;;;;;;;;;;;4894945;29;20496;-67
2023/11/20 01:28:48;;;;;;;;;;;;;;;;;;4892383;29;20014;-66
2023/11/20 01:31:13;;;;;;;;;;;;;;;;;;4892618;29;21944;-66
2023/11/20 01:33:41;;;;;;;;;;;;;;;;;;4910821;29;19997;-66
2023/11/20 01:36:07;;;;;;;;;;;;;;;;;;4893171;29;19969;-66
2023/11/20 01:38:32;;;;;;;;;;;;;;;;;;4906260;29;20243;-66
2023/11/20 01:40:57;;;;;;;;;;;;;;;;;;4894138;29;19941;-66
2023/11/20 01:43:26;;;;;;;;;;;;;;;;;;4878164;29;20327;-66
2023/11/20 01:45:52;;;;;;;;;;;;;;;;;;4892230;29;19934;-66
2023/11/20 01:48:19;;;;;;;;;;;;;;;;;;4894003;29;19930;-66
2023/11/20 01:50:45;;;;;;;;;;;;;;;;;;4909699;29;19931;-66
2023/11/20 01:53:10;;;;;;;;;;;;;;;;;;4890227;29;19961;-66
2023/11/20 01:55:35;;;;;;;;;;;;;;;;;;4909461;29;20279;-67
2023/11/20 01:58:01;;;;;;;;;;;;;;;;;;4891131;29;19929;-66
2023/11/20 02:00:26;;;;;;;;;;;;;;;;;;4908875;29;19919;-66
2023/11/20 02:02:54;;;;;;;;;;;;;;;;;;4877353;29;20540;-66
2023/11/20 02:05:19;;;;;;;;;;;;;;;;;;4877477;29;19930;-65
2023/11/20 02:07:45;;;;;;;;;;;;;;;;;;4889755;29;19918;-66
2023/11/20 02:10:10;;;;;;;;;;;;;;;;;;4891975;29;19958;-66
2023/11/20 02:12:36;;;;;;;;;;;;;;;;;;4882748;29;20014;-65
2023/11/20 02:15:01;;;;;;;;;;;;;;;;;;4884916;29;20469;-65
2023/11/20 02:17:26;;;;;;;;;;;;;;;;;;4897779;29;19966;-65
2023/11/20 02:19:52;;;;;;;;;;;;;;;;;;4913580;29;20706;-65
2023/11/20 02:22:17;;;;;;;;;;;;;;;;;;4897587;29;19923;-65
2023/11/20 02:24:43;;;;;;;;;;;;;;;;;;4898731;29;19931;-65
2023/11/20 02:27:08;;;;;;;;;;;;;;;;;;4914140;29;20212;-65
2023/11/20 02:29:35;;;;;;;;;;;;;;;;;;4899755;29;20400;-64
2023/11/20 02:32:04;;;;;;;;;;;;;;;;;;4890047;29;20054;-65
2023/11/20 02:34:29;;;;;;;;;;;;;;;;;;4884176;29;19930;-65
2023/11/20 02:36:54;;;;;;;;;;;;;;;;;;4914134;29;19919;-65
2023/11/20 02:39:19;;;;;;;;;;;;;;;;;;4897648;29;20163;-65
2023/11/20 02:41:45;;;;;;;;;;;;;;;;;;4897958;29;19973;-64
2023/11/20 02:44:10;;;;;;;;;;;;;;;;;;4897900;29;19927;-65
2023/11/20 02:46:36;;;;;;;;;;;;;;;;;;4912399;29;19930;-65
2023/11/20 02:49:01;;;;;;;;;;;;;;;;;;4897658;29;20501;-65
2023/11/20 02:51:27;;;;;;;;;;;;;;;;;;4913143;29;20006;-65
2023/11/20 02:53:53;;;;;;;;;;;;;;;;;;4897121;29;20208;-65
2023/11/20 02:56:18;;;;;;;;;;;;;;;;;;4898556;29;19919;-66
2023/11/20 02:58:43;;;;;;;;;;;;;;;;;;4909567;29;19923;-65
2023/11/20 03:01:09;;;;;;;;;;;;;;;;;;4906378;29;19923;-65
2023/11/20 03:03:39;;;;;;;;;;;;;;;;;;4913600;29;20128;-65
2023/11/20 03:06:04;;;;;;;;;;;;;;;;;;4881324;29;20690;-65
2023/11/20 03:08:30;;;;;;;;;;;;;;;;;;4897517;29;19923;-65
2023/11/20 03:10:55;;;;;;;;;;;;;;;;;;4904558;29;20357;-65
2023/11/20 03:13:24;;;;;;;;;;;;;;;;;;4893003;29;20504;-64
2023/11/20 03:15:50;;;;;;;;;;;;;;;;;;4913357;29;20276;-65
2023/11/20 03:18:15;;;;;;;;;;;;;;;;;;4880697;29;19918;-64
2023/11/20 03:20:40;;;;;;;;;;;;;;;;;;4891783;29;20301;-64
2023/11/20 03:23:06;;;;;;;;;;;;;;;;;;4895272;29;19919;-64
2023/11/20 03:25:31;;;;;;;;;;;;;;;;;;4910600;29;19923;-64
2023/11/20 03:27:56;;;;;;;;;;;;;;;;;;4896913;29;20623;-65
2023/11/20 03:30:24;;;;;;;;;;;;;;;;;;4894131;29;20542;-64
2023/11/20 03:32:52;;;;;;;;;;;;;;;;;;4908738;29;19923;-64
2023/11/20 03:35:17;;;;;;;;;;;;;;;;;;4894356;29;19925;-65
2023/11/20 03:37:43;;;;;;;;;;;;;;;;;;4912860;29;19923;-64
2023/11/20 03:40:10;;;;;;;;;;;;;;;;;;4912996;29;20415;-64
2023/11/20 03:42:36;;;;;;;;;;;;;;;;;;4892058;29;19919;-63
2023/11/20 03:45:01;;;;;;;;;;;;;;;;;;4894790;29;20521;-64
2023/11/20 03:47:26;;;;;;;;;;;;;;;;;;4879420;29;19922;-64
2023/11/20 03:49:52;;;;;;;;;;;;;;;;;;4896410;29;20384;-64
2023/11/20 03:52:17;;;;;;;;;;;;;;;;;;4910244;29;19923;-65
2023/11/20 03:54:42;;;;;;;;;;;;;;;;;;4913139;29;19938;-64
2023/11/20 03:57:08;;;;;;;;;;;;;;;;;;4896726;29;19918;-65
2023/11/20 03:59:33;;;;;;;;;;;;;;;;;;4895993;29;19959;-64
2023/11/20 04:01:59;;;;;;;;;;;;;;;;;;4911085;29;19987;-64
2023/11/20 04:04:24;;;;;;;;;;;;;;;;;;4896607;29;19973;-64
2023/11/20 04:06:49;;;;;;;;;;;;;;;;;;4913455;29;20386;-64
2023/11/20 04:09:14;;;;;;;;;;;;;;;;;;4911531;29;20053;-64
2023/11/20 04:11:40;;;;;;;;;;;;;;;;;;4896485;29;19942;-65
2023/11/20 04:14:05;;;;;;;;;;;;;;;;;;4895207;29;19923;-64
2023/11/20 04:16:33;;;;;;;;;;;;;;;;;;4894281;29;20033;-65
2023/11/20 04:18:58;;;;;;;;;;;;;;;;;;4908392;29;19930;-64
2023/11/20 04:21:24;;;;;;;;;;;;;;;;;;4907313;29;19919;-65
2023/11/20 04:23:49;;;;;;;;;;;;;;;;;;4880313;29;19923;-65
2023/11/20 04:26:14;;;;;;;;;;;;;;;;;;4895609;29;19934;-64
2023/11/20 04:28:40;;;;;;;;;;;;;;;;;;4911376;29;19923;-65
2023/11/20 04:31:05;;;;;;;;;;;;;;;;;;4910506;29;19934;-64
2023/11/20 04:33:30;;;;;;;;;;;;;;;;;;4894142;29;20112;-64
2023/11/20 04:36:02;;;;;;;;;;;;;;;;;;4909371;29;20403;-64
2023/11/20 04:38:30;;;;;;;;;;;;;;;;;;4912875;29;19941;-64
2023/11/20 04:40:56;;;;;;;;;;;;;;;;;;4895125;29;19965;-64
2023/11/20 04:43:22;;;;;;;;;;;;;;;;;;4909210;29;19927;-63
2023/11/20 04:45:47;;;;;;;;;;;;;;;;;;4889649;29;20406;-63
2023/11/20 04:48:12;;;;;;;;;;;;;;;;;;4882435;29;19923;-64
2023/11/20 04:50:38;;;;;;;;;;;;;;;;;;4912363;28;19923;-63
2023/11/20 04:53:03;;;;;;;;;;;;;;;;;;4882464;29;19978;-64
2023/11/20 04:55:28;;;;;;;;;;;;;;;;;;4890752;29;20002;-64
2023/11/20 04:57:54;;;;;;;;;;;;;;;;;;4894736;29;20817;-63
2023/11/20 05:00:19;;;;;;;;;;;;;;;;;;4893909;29;20010;-65
2023/11/20 05:02:45;;;;;;;;;;;;;;;;;;4881886;29;19965;-65
2023/11/20 05:05:13;;;;;;;;;;;;;;;;;;4911070;29;20041;-63
2023/11/20 05:07:38;;;;;;;;;;;;;;;;;;4895025;29;20103;-64
2023/11/20 05:10:07;;;;;;;;;;;;;;;;;;4892925;29;19931;-64
2023/11/20 05:12:32;;;;;;;;;;;;;;;;;;4894629;29;20020;-63
2023/11/20 05:14:58;;;;;;;;;;;;;;;;;;4894491;29;19934;-63
2023/11/20 05:17:26;;;;;;;;;;;;;;;;;;4879691;29;19919;-65
2023/11/20 05:19:53;;;;;;;;;;;;;;;;;;4893040;29;19919;-63
2023/11/20 05:22:19;;;;;;;;;;;;;;;;;;4893529;29;20685;-68
2023/11/20 05:24:44;;;;;;;;;;;;;;;;;;4909134;29;20032;-64
2023/11/20 05:27:10;;;;;;;;;;;;;;;;;;4878804;29;19957;-64
2023/11/20 05:29:38;;;;;;;;;;;;;;;;;;4893251;29;19977;-65
2023/11/20 05:32:06;;;;;;;;;;;;;;;;;;4887749;29;20707;-66
2023/11/20 05:34:33;;;;;;;;;;;;;;;;;;4891312;29;19923;-64
2023/11/20 05:37:01;;;;;;;;;;;;;;;;;;4896690;29;19919;-66
2023/11/20 05:39:27;;;;;;;;;;;;;;;;;;4905663;29;20022;-64
2023/11/20 05:41:52;;;;;;;;;;;;;;;;;;4881566;29;19923;-64
2023/11/20 05:44:17;;;;;;;;;;;;;;;;;;4883757;29;19926;-64
2023/11/20 05:46:43;;;;;;;;;;;;;;;;;;4884529;29;19931;-64
2023/11/20 05:49:08;;;;;;;;;;;;;;;;;;4915473;29;19969;-64
2023/11/20 05:51:33;;;;;;;;;;;;;;;;;;4894425;29;19937;-64
2023/11/20 05:53:58;;;;;;;;;;;;;;;;;;4882220;29;19958;-64
2023/11/20 05:56:29;;;;;;;;;;;;;;;;;;4897640;29;19923;-64
2023/11/20 05:58:54;;;;;;;;;;;;;;;;;;4909880;29;20378;-65
2023/11/20 06:01:20;;;;;;;;;;;;;;;;;;4914195;29;19925;-64
2023/11/20 06:03:45;;;;;;;;;;;;;;;;;;4911555;29;20465;-64
2023/11/20 06:06:10;;;;;;;;;;;;;;;;;;4894540;29;19919;-66
2023/11/20 06:08:39;;;;;;;;;;;;;;;;;;4887083;29;19923;-65
2023/11/20 06:11:07;;;;;;;;;;;;;;;;;;4898616;29;19975;-64
2023/11/20 06:13:33;;;;;;;;;;;;;;;;;;4896739;29;20375;-66
2023/11/20 06:15:58;;;;;;;;;;;;;;;;;;4913490;29;20172;-64
2023/11/20 06:18:23;;;;;;;;;;;;;;;;;;4891838;29;19919;-67
2023/11/20 06:20:51;;;;;;;;;;;;;;;;;;4899343;29;20426;-64
2023/11/20 06:23:18;;;;;;;;;;;;;;;;;;4915990;29;19918;-63
2023/11/20 06:25:43;;;;;;;;;;;;;;;;;;4897070;29;19923;-63
2023/11/20 06:28:09;;;;;;;;;;;;;;;;;;4898746;29;19994;-65
2023/11/20 06:30:34;;;;;;;;;;;;;;;;;;4892273;29;19922;-63
2023/11/20 06:33:03;;;;;;;;;;;;;;;;;;4885439;29;19926;-63
2023/11/20 06:35:31;;;;;;;;;;;;;;;;;;4898095;29;19922;-63
2023/11/20 06:37:56;;;;;;;;;;;;;;;;;;4915181;29;19914;-63
2023/11/20 06:40:22;;;;;;;;;;;;;;;;;;4909700;29;19989;-64
2023/11/20 06:42:47;;;;;;;;;;;;;;;;;;4907451;29;20435;-64
2023/11/20 06:45:13;;;;;;;;;;;;;;;;;;4892880;29;20433;-65
2023/11/20 06:47:38;;;;;;;;;;;;;;;;;;4898389;29;19958;-65
2023/11/20 06:50:03;;;;;;;;;;;;;;;;;;4896674;29;19926;-65
2023/11/20 06:52:29;;;;;;;;;;;;;;;;;;4915205;29;20374;-64
2023/11/20 06:54:54;;;;;;;;;;;;;;;;;;4897048;29;19964;-65
2023/11/20 06:57:22;;;;;;;;;;;;;;;;;;4907863;29;19930;-66
2023/11/20 06:59:48;;;;;;;;;;;;;;;;;;4899245;29;19918;-65
2023/11/20 07:02:14;;;;;;;;;;;;;;;;;;4897274;29;20008;-64
2023/11/20 07:07:58;;;;;;;;;;;;;;;;;;4912052;29;20010;-65
2023/11/20 07:10:25;;;;;;;;;;;;;;;;;;4908173;29;19927;-65
2023/11/20 07:12:50;;;;;;;;;;;;;;;;;;4898659;29;19919;-65
2023/11/20 07:15:16;;;;;;;;;;;;;;;;;;4915016;29;19969;-66
2023/11/20 07:17:44;;;;;;;;;;;;;;;;;;4897885;29;19929;-65
2023/11/20 07:20:09;;;;;;;;;;;;;;;;;;4893383;29;20590;-65
2023/11/20 07:22:35;;;;;;;;;;;;;;;;;;4897866;29;19922;-66
2023/11/20 07:25:00;;;;;;;;;;;;;;;;;;4885526;29;20014;-65
2023/11/20 07:27:28;;;;;;;;;;;;;;;;;;4882691;29;19947;-64
2023/11/20 07:29:53;;;;;;;;;;;;;;;;;;4900529;29;20434;-65
2023/11/20 07:32:19;;;;;;;;;;;;;;;;;;4899212;29;19915;-65
2023/11/20 07:34:44;;;;;;;;;;;;;;;;;;4882092;29;19918;-65
2023/11/20 07:40:26;;;;;;;;;;;;;;;;;;4914027;29;19974;-69
2023/11/20 07:42:51;;;;;;;;;;;;;;;;;;4895714;29;20517;-65
2023/11/20 07:45:17;;;;;;;;;;;;;;;;;;4897059;29;19939;-66
2023/11/20 07:47:42;;;;;;;;;;;;;;;;;;4907856;29;20287;-65
2023/11/20 07:50:12;;;;;;;;;;;;;;;;;;4898141;29;20367;-66
2023/11/20 07:52:37;;;;;;;;;;;;;;;;;;4914336;29;19919;-67
2023/11/20 07:55:07;;;;;;;;;;;;;;;;;;4883867;29;19919;-66
2023/11/20 07:57:32;;;;;;;;;;;;;;;;;;4884510;29;20034;-64
2023/11/20 08:00:00;;;;;;;;;;;;;;;;;;4892545;29;19923;-64
2023/11/20 08:02:26;;;;;;;;;;;;;;;;;;4897096;29;20350;-64
2023/11/20 08:08:08;;;;;;;;;;;;;;;;;;4913659;29;19929;-64
2023/11/20 08:10:34;;;;;;;;;;;;;;;;;;4895676;29;19927;-64
2023/11/20 08:12:59;;;;;;;;;;;;;;;;;;4907515;29;19991;-64
2023/11/20 08:15:25;;;;;;;;;;;;;;;;;;4883402;29;19945;-65
2023/11/20 08:17:50;;;;;;;;;;;;;;;;;;4890310;29;19974;-65
2023/11/20 08:20:18;;;;;;;;;;;;;;;;;;4908434;29;19922;-65
2023/11/20 08:22:43;;;;;;;;;;;;;;;;;;4895592;29;19931;-67
2023/11/20 08:25:14;;;;;;;;;;;;;;;;;;4909092;29;19922;-66
2023/11/20 08:27:40;;;;;;;;;;;;;;;;;;4912015;29;20295;-66
2023/11/20 08:30:05;;;;;;;;;;;;;;;;;;4895806;29;20405;-67
2023/11/20 08:32:31;;;;;;;;;;;;;;;;;;4912657;29;19926;-65
2023/11/20 08:34:56;;;;;;;;;;;;;;;;;;4895202;29;20441;-66
2023/11/20 08:37:22;;;;;;;;;;;;;;;;;;4890406;29;19926;-66
2023/11/20 08:39:47;;;;;;;;;;;;;;;;;;4897052;29;20379;-67
2023/11/20 08:42:12;;;;;;;;;;;;;;;;;;4881732;29;19969;-69
2023/11/20 08:44:41;;;;;;;;;;;;;;;;;;4907702;29;20851;-66
2023/11/20 08:47:06;;;;;;;;;;;;;;;;;;4897874;29;19931;-67
2023/11/20 08:49:32;;;;;;;;;;;;;;;;;;4906521;29;19919;-69
2023/11/20 08:52:00;;;;;;;;;;;;;;;;;;4891062;29;19931;-67
2023/11/20 08:54:28;;;;;;;;;;;;;;;;;;4898056;29;20414;-71
2023/11/20 08:56:53;;;;;;;;;;;;;;;;;;4906327;29;19923;-68
2023/11/20 08:59:19;;;;;;;;;;;;;;;;;;4897688;29;19923;-66
2023/11/20 09:01:47;;;;;;;;;;;;;;;;;;4888906;29;19958;-67
2023/11/20 09:04:13;;;;;;;;;;;;;;;;;;4913847;29;20052;-67
2023/11/20 09:06:38;;;;;;;;;;;;;;;;;;4891792;29;19927;-66
2023/11/20 09:09:08;;;;;;;;;;;;;;;;;;4882186;29;20580;-68
2023/11/20 09:11:35;;;;;;;;;;;;;;;;;;4899274;29;19997;-67
2023/11/20 09:14:01;;;;;;;;;;;;;;;;;;4911953;29;19987;-68
2023/11/20 09:16:27;;;;;;;;;;;;;;;;;;4879548;29;19930;-70
2023/11/20 09:18:52;;;;;;;;;;;;;;;;;;4891017;29;19918;-68
2023/11/20 09:21:18;;;;;;;;;;;;;;;;;;4892102;29;20292;-68
2023/11/20 09:23:44;;;;;;;;;;;;;;;;;;4889624;29;19929;-69
2023/11/20 09:26:11;;;;;;;;;;;;;;;;;;4911379;29;19922;-66
2023/11/20 09:28:36;;;;;;;;;;;;;;;;;;4897186;29;20009;-67
2023/11/20 09:31:04;;;;;;;;;;;;;;;;;;4910405;29;19930;-67
2023/11/20 09:33:30;;;;;;;;;;;;;;;;;;4889484;29;19997;-68
2023/11/20 09:35:55;;;;;;;;;;;;;;;;;;4897203;29;20005;-70
2023/11/20 09:38:23;;;;;;;;;;;;;;;;;;4890442;29;19955;-69
2023/11/20 09:40:50;;;;;;;;;;;;;;;;;;4881759;29;19919;-68
2023/11/20 09:43:19;;;;;;;;;;;;;;;;;;4913904;29;19922;-68
2023/11/20 09:45:47;;;;;;;;;;;;;;;;;;4879905;29;20925;-72
2023/11/20 09:48:15;;;;;;;;;;;;;;;;;;4907174;29;20010;-69
2023/11/20 09:50:43;;;;;;;;;;;;;;;;;;4895314;29;20078;-69
2023/11/20 09:53:08;;;;;;;;;;;;;;;;;;4911795;29;19923;-69
2023/11/20 09:55:34;;;;;;;;;;;;;;;;;;4906055;29;20500;-73
2023/11/20 09:57:59;;;;;;;;;;;;;;;;;;4896271;29;20353;-69
2023/11/20 10:03:41;;;;;;;;;;;;;;;;;;4913534;29;19934;-69
2023/11/20 10:06:10;;;;;;;;;;;;;;;;;;4896698;29;19915;-69
2023/11/20 10:08:40;;;;;;;;;;;;;;;;;;4891677;29;20036;-73
2023/11/20 10:11:08;;;;;;;;;;;;;;;;;;4894546;29;20256;-70
2023/11/20 10:13:33;;;;;;;;;;;;;;;;;;4913730;29;19930;-73
2023/11/20 10:16:01;;;;;;;;;;;;;;;;;;4890875;29;19918;-70
2023/11/20 10:18:28;;;;;;;;;;;;;;;;;;4913333;29;19918;-71
2023/11/20 10:20:54;;;;;;;;;;;;;;;;;;4923953;28;19930;-69
2023/11/20 10:23:21;;;;;;;;;;;;;;;;;;4882175;29;19923;-69
2023/11/20 10:25:47;;;;;;;;;;;;;;;;;;4890746;29;19966;-70
2023/11/20 10:28:13;;;;;;;;;;;;;;;;;;4895503;29;19957;-69
2023/11/20 10:30:42;;;;;;;;;;;;;;;;;;4914100;29;19936;-70
2023/11/20 10:33:07;;;;;;;;;;;;;;;;;;4897169;29;19923;-69
2023/11/20 10:35:35;;;;;;;;;;;;;;;;;;4895614;29;20057;-69
2023/11/20 10:38:05;;;;;;;;;;;;;;;;;;4897602;29;19923;-69
2023/11/20 10:40:35;;;;;;;;;;;;;;;;;;4894848;29;19919;-69
2023/11/20 10:43:02;;;;;;;;;;;;;;;;;;4897951;29;21527;-69
2023/11/20 10:45:34;;;;;;;;;;;;;;;;;;4898119;29;19923;-69
2023/11/20 10:48:02;;;;;;;;;;;;;;;;;;4895447;29;19939;-70
2023/11/20 10:50:28;;;;;;;;;;;;;;;;;;4907170;29;19919;-69
2023/11/20 10:52:56;;;;;;;;;;;;;;;;;;4896175;29;19926;-70
2023/11/20 10:55:21;;;;;;;;;;;;;;;;;;4905675;29;20191;-71
2023/11/20 10:57:46;;;;;;;;;;;;;;;;;;4895432;29;20703;-69
2023/11/20 11:00:15;;;;;;;;;;;;;;;;;;4905961;29;20021;-70
2023/11/20 11:02:41;;;;;;;;;;;;;;;;;;4906575;29;19930;-70
2023/11/20 11:05:10;;;;;;;;;;;;;;;;;;4907024;29;19915;-70
2023/11/20 11:10:52;;;;;;;;;;;;;;;;;;4895588;29;19985;-72
2023/11/20 11:13:23;;;;;;;;;;;;;;;;;;4894836;29;21401;-72
2023/11/20 11:15:50;;;;;;;;;;;;;;;;;;4905800;29;20406;-72
2023/11/20 11:18:16;;;;;;;;;;;;;;;;;;4893964;29;20353;-73
2023/11/20 11:20:41;;;;;;;;;;;;;;;;;;4882461;29;19930;-74
2023/11/20 11:23:08;;;;;;;;;;;;;;;;;;4908126;29;19931;-78
2023/11/20 11:25:33;;;;;;;;;;;;;;;;;;4900796;29;19923;-73
2023/11/20 11:27:58;;;;;;;;;;;;;;;;;;4883309;29;19923;-71
2023/11/20 11:30:24;;;;;;;;;;;;;;;;;;4896035;29;20017;-73
2023/11/20 11:32:49;;;;;;;;;;;;;;;;;;4896445;29;19979;-73
2023/11/20 11:35:19;;;;;;;;;;;;;;;;;;4898242;29;20482;-79
2023/11/20 11:37:45;;;;;;;;;;;;;;;;;;4900882;29;20324;-78
2023/11/20 11:40:13;;;;;;;;;;;;;;;;;;4889272;29;19916;-76
2023/11/20 11:42:41;;;;;;;;;;;;;;;;;;4907224;29;19926;-76
2023/11/20 11:45:09;;;;;;;;;;;;;;;;;;4897441;29;20428;-79
2023/11/20 11:47:34;;;;;;;;;;;;;;;;;;4897919;29;19971;-78
2023/11/20 11:49:59;;;;;;;;;;;;;;;;;;4907281;29;19919;-78
2023/11/20 11:52:26;;;;;;;;;;;;;;;;;;4912341;29;19931;-79
2023/11/20 11:54:54;;;;;;;;;;;;;;;;;;4898186;29;19923;-79
2023/11/20 11:57:19;;;;;;;;;;;;;;;;;;4909772;29;19919;-77
2023/11/20 11:59:45;;;;;;;;;;;;;;;;;;4915396;29;20421;-77
2023/11/20 12:02:17;;;;;;;;;;;;;;;;;;4895415;29;20239;-77
2023/11/20 12:04:43;;;;;;;;;;;;;;;;;;4900918;29;20488;-79
2023/11/20 12:07:08;;;;;;;;;;;;;;;;;;4893265;29;20046;-79
2023/11/20 12:09:34;;;;;;;;;;;;;;;;;;4915101;29;20014;-78
2023/11/20 12:15:18;;;;;;;;;;;;;;;;;;4914181;29;20315;-77
2023/11/20 12:17:50;;;;;;;;;;;;;;;;;;4891418;29;19923;-77
2023/11/20 12:20:15;;;;;;;;;;;;;;;;;;4897422;29;19927;-75
2023/11/20 12:22:41;;;;;;;;;;;;;;;;;;4896014;29;20323;-81
2023/11/20 12:25:09;;;;;;;;;;;;;;;;;;4913432;29;20025;-78
2023/11/20 12:27:38;;;;;;;;;;;;;;;;;;4895192;29;20272;-76
2023/11/20 12:30:04;;;;;;;;;;;;;;;;;;4909289;28;19923;-77
2023/11/20 12:32:29;;;;;;;;;;;;;;;;;;4882873;29;19930;-77
2023/11/20 12:38:11;;;;;;;;;;;;;;;;;;4911680;29;19977;-73
2023/11/20 12:40:37;;;;;;;;;;;;;;;;;;4905825;29;20933;-74
2023/11/20 12:43:04;;;;;;;;;;;;;;;;;;4913288;29;19923;-76
2023/11/20 12:45:30;;;;;;;;;;;;;;;;;;4912604;29;19942;-74
2023/11/20 12:47:55;;;;;;;;;;;;;;;;;;4896748;29;20686;-75
2023/11/20 12:50:20;;;;;;;;;;;;;;;;;;4913479;29;19918;-74
2023/11/20 12:52:51;;;;;;;;;;;;;;;;;;4879056;29;20400;-76
2023/11/20 12:55:18;;;;;;;;;;;;;;;;;;4913056;29;20213;-74
2023/11/20 12:57:43;;;;;;;;;;;;;;;;;;4907025;29;19923;-76
2023/11/20 13:00:14;;;;;;;;;;;;;;;;;;4897691;29;19922;-76
2023/11/20 13:02:41;;;;;;;;;;;;;;;;;;4893152;29;20311;-74
2023/11/20 13:05:09;;;;;;;;;;;;;;;;;;4893556;29;20097;-76
2023/11/20 13:07:35;;;;;;;;;;;;;;;;;;4914151;29;20107;-76
2023/11/20 13:10:00;;;;;;;;;;;;;;;;;;4896345;29;20260;-74
2023/11/20 13:12:25;;;;;;;;;;;;;;;;;;4883711;29;19981;-75
2023/11/20 13:14:52;;;;;;;;;;;;;;;;;;4905256;29;20339;-75
2023/11/20 13:17:18;;;;;;;;;;;;;;;;;;4895353;29;19966;-76
2023/11/20 13:22:59;;;;;;;;;;;;;;;;;;4913270;29;20433;-73
2023/11/20 13:25:24;;;;;;;;;;;;;;;;;;4911425;29;19918;-74
2023/11/20 13:27:50;;;;;;;;;;;;;;;;;;4896559;29;19962;-75
2023/11/20 13:30:15;;;;;;;;;;;;;;;;;;4881228;29;20049;-74
2023/11/20 13:35:56;;;;;;;;;;;;;;;;;;4914027;29;20018;-73
2023/11/20 13:41:16;;;;;;;;;;;;;;;;;;4912518;29;19930;-75
2023/11/20 13:43:41;;;;;;;;;;;;;;;;;;4910413;29;19934;-75
2023/11/20 13:46:07;;;;;;;;;;;;;;;;;;4913255;29;19930;-75
2023/11/20 13:51:48;;;;;;;;;;;;;;;;;;4912198;29;19937;-75
2023/11/20 13:54:14;;;;;;;;;;;;;;;;;;4893626;29;20298;-73
2023/11/20 13:56:39;;;;;;;;;;;;;;;;;;4881227;29;19920;-74
2023/11/20 13:59:08;;;;;;;;;;;;;;;;;;4891363;29;19923;-73
2023/11/20 14:01:33;;;;;;;;;;;;;;;;;;4910872;29;19940;-76
2023/11/20 14:03:58;;;;;;;;;;;;;;;;;;4924761;28;20359;-74
2023/11/20 14:06:24;;;;;;;;;;;;;;;;;;4899206;29;19919;-75
2023/11/20 14:08:49;;;;;;;;;;;;;;;;;;4915832;29;20409;-74
2023/11/20 14:11:15;;;;;;;;;;;;;;;;;;4899030;29;20400;-73
2023/11/20 14:13:40;;;;;;;;;;;;;;;;;;4887175;29;20017;-76
2023/11/20 14:16:11;;;;;;;;;;;;;;;;;;4915989;29;20550;-74
2023/11/20 14:18:36;;;;;;;;;;;;;;;;;;4913493;29;20041;-73
2023/11/20 14:21:01;;;;;;;;;;;;;;;;;;4899765;29;19923;-73
2023/11/20 14:23:27;;;;;;;;;;;;;;;;;;4901829;29;19951;-75
2023/11/20 14:25:52;;;;;;;;;;;;;;;;;;4898098;29;20966;-75
2023/11/20 14:28:17;;;;;;;;;;;;;;;;;;4892831;29;20376;-75
2023/11/20 14:30:43;;;;;;;;;;;;;;;;;;4895165;29;19922;-75
2023/11/20 14:33:11;;;;;;;;;;;;;;;;;;4907537;29;19922;-75
2023/11/20 14:35:37;;;;;;;;;;;;;;;;;;4914083;29;19919;-75
2023/11/20 14:38:02;;;;;;;;;;;;;;;;;;4916963;29;21375;-74
2023/11/20 14:40:30;;;;;;;;;;;;;;;;;;4882159;29;19962;-76
2023/11/20 14:42:56;;;;;;;;;;;;;;;;;;4899767;29;19919;-76
2023/11/20 14:45:21;;;;;;;;;;;;;;;;;;4912807;29;20429;-75
2023/11/20 14:47:47;;;;;;;;;;;;;;;;;;4916811;29;19927;-73
2023/11/20 14:50:13;;;;;;;;;;;;;;;;;;4900740;29;19919;-74
2023/11/20 14:52:38;;;;;;;;;;;;;;;;;;4901809;29;20487;-74
2023/11/20 14:55:03;;;;;;;;;;;;;;;;;;4916911;29;19933;-74
2023/11/20 14:57:30;;;;;;;;;;;;;;;;;;4899046;29;19979;-75
2023/11/20 15:00:14;;;;;;;;;;;;;;;;;;4908263;29;19919;-75
2023/11/20 15:02:42;;;;;;;;;;;;;;;;;;4913028;29;19927;-74
2023/11/20 15:05:14;;;;;;;;;;;;;;;;;;4888057;29;20508;-75
2023/11/20 15:07:40;;;;;;;;;;;;;;;;;;4885253;29;20461;-77
2023/11/20 15:10:09;;;;;;;;;;;;;;;;;;4881776;29;20053;-74
2023/11/20 15:12:36;;;;;;;;;;;;;;;;;;4911952;29;20466;-74
2023/11/20 15:15:02;;;;;;;;;;;;;;;;;;4922840;28;20044;-76
2023/11/20 15:17:27;;;;;;;;;;;;;;;;;;4911512;29;20392;-75
2023/11/20 15:19:52;;;;;;;;;;;;;;;;;;4912758;29;20054;-74
2023/11/20 15:22:18;;;;;;;;;;;;;;;;;;4910025;29;19925;-75
2023/11/20 15:24:43;;;;;;;;;;;;;;;;;;4912784;29;20156;-75
2023/11/20 15:27:10;;;;;;;;;;;;;;;;;;4910477;29;19949;-75
2023/11/20 15:29:35;;;;;;;;;;;;;;;;;;4913362;29;20013;-75
2023/11/20 15:32:01;;;;;;;;;;;;;;;;;;4895358;29;19964;-75
2023/11/20 15:34:26;;;;;;;;;;;;;;;;;;4908591;29;19918;-74
2023/11/20 15:36:52;;;;;;;;;;;;;;;;;;4914199;29;19975;-74
2023/11/20 15:39:17;;;;;;;;;;;;;;;;;;4914187;29;19944;-75
2023/11/20 15:41:43;;;;;;;;;;;;;;;;;;4894211;29;19919;-75
2023/11/20 15:44:09;;;;;;;;;;;;;;;;;;4895321;29;19923;-75
2023/11/20 15:46:35;;;;;;;;;;;;;;;;;;4912105;29;19938;-75
2023/11/20 15:49:00;;;;;;;;;;;;;;;;;;4914074;29;19923;-74
2023/11/20 15:51:26;;;;;;;;;;;;;;;;;;4891640;29;20010;-75
2023/11/20 15:53:52;;;;;;;;;;;;;;;;;;4893359;29;20302;-75
2023/11/20 15:56:18;;;;;;;;;;;;;;;;;;4895237;29;19993;-75
2023/11/20 15:58:46;;;;;;;;;;;;;;;;;;4907113;29;19919;-75
2023/11/20 16:01:11;;;;;;;;;;;;;;;;;;4896464;29;19919;-75
2023/11/20 16:03:36;;;;;;;;;;;;;;;;;;4897803;29;20005;-76
2023/11/20 16:06:07;;;;;;;;;;;;;;;;;;4906514;29;20029;-74
2023/11/20 16:08:32;;;;;;;;;;;;;;;;;;4906326;29;20018;-73
2023/11/20 16:10:58;;;;;;;;;;;;;;;;;;4906172;29;20150;-74
2023/11/20 16:13:23;;;;;;;;;;;;;;;;;;4904806;29;19954;-76
2023/11/20 16:15:48;;;;;;;;;;;;;;;;;;4882182;29;19973;-75
2023/11/20 16:18:14;;;;;;;;;;;;;;;;;;4904908;29;20391;-75
2023/11/20 16:20:39;;;;;;;;;;;;;;;;;;4882474;29;19989;-76
2023/11/20 16:23:06;;;;;;;;;;;;;;;;;;4911478;29;20021;-76
2023/11/20 16:25:31;;;;;;;;;;;;;;;;;;4897687;29;19947;-75
2023/11/20 16:27:56;;;;;;;;;;;;;;;;;;4888418;29;20206;-74
2023/11/20 16:30:22;;;;;;;;;;;;;;;;;;4880440;29;19915;-75
2023/11/20 16:32:47;;;;;;;;;;;;;;;;;;4897020;29;20994;-75
2023/11/20 16:35:16;;;;;;;;;;;;;;;;;;4892999;29;19915;-75
2023/11/20 16:37:42;;;;;;;;;;;;;;;;;;4906932;29;19961;-76
2023/11/20 16:40:08;;;;;;;;;;;;;;;;;;4881129;29;19993;-76
2023/11/20 16:42:33;;;;;;;;;;;;;;;;;;4893860;29;19919;-75
2023/11/20 16:44:59;;;;;;;;;;;;;;;;;;4895750;29;19950;-75
2023/11/20 16:47:24;;;;;;;;;;;;;;;;;;4911303;29;20021;-75
2023/11/20 16:49:50;;;;;;;;;;;;;;;;;;4894207;29;19923;-76
2023/11/20 16:52:16;;;;;;;;;;;;;;;;;;4906697;29;19922;-76
2023/11/20 16:54:41;;;;;;;;;;;;;;;;;;4881787;29;19930;-75
2023/11/20 16:57:08;;;;;;;;;;;;;;;;;;4895088;29;19973;-75
2023/11/20 16:59:36;;;;;;;;;;;;;;;;;;4881892;29;19922;-75
2023/11/20 17:02:03;;;;;;;;;;;;;;;;;;4911521;29;19933;-74
2023/11/20 17:04:29;;;;;;;;;;;;;;;;;;4907765;29;20330;-75
2023/11/20 17:06:55;;;;;;;;;;;;;;;;;;4912992;29;21027;-77
2023/11/20 17:09:20;;;;;;;;;;;;;;;;;;4896846;29;20499;-74
2023/11/20 17:11:45;;;;;;;;;;;;;;;;;;4893819;29;20347;-74
2023/11/20 17:14:11;;;;;;;;;;;;;;;;;;4896505;29;20299;-76